Time;durP1;ratioP1;P1;durP2;ratioP2;P2;SDS_P1;SDS_P2;PMS_P1;PMS_P2;Temp;Humidity;BMP_temperature;BMP_pressure;BME280_temperature;BME280_humidity;BME280_pressure;Samples;Min_cycle;Max_cycle;Signal;HPM_P1;HPM_P2
2022/07/14 00:02:17;;;;;;;12.03;2.57;;;;;;;23.75;100.00;101953.09;5066672;28;19934;-53
2022/07/14 00:04:42;;;;;;;18.48;4.38;;;;;;;23.44;100.00;101955.53;5065886;28;20044;-55
2022/07/14 00:07:08;;;;;;;10.43;2.72;;;;;;;23.62;100.00;101957.91;5067642;28;20045;-49
2022/07/14 00:09:34;;;;;;;15.05;2.13;;;;;;;23.50;100.00;101962.69;5071328;28;20135;-48
2022/07/14 00:11:59;;;;;;;14.63;3.20;;;;;;;23.51;100.00;101961.59;5068529;28;20030;-53
2022/07/14 00:14:25;;;;;;;13.32;3.63;;;;;;;23.43;100.00;101959.34;5072708;28;20374;-54
2022/07/14 00:16:50;;;;;;;10.35;2.75;;;;;;;23.39;100.00;101963.66;5070073;28;20060;-56
2022/07/14 00:19:17;;;;;;;10.52;3.05;;;;;;;23.30;100.00;101958.66;5073742;28;20037;-52
2022/07/14 00:21:42;;;;;;;16.67;3.60;;;;;;;22.81;100.00;101961.25;5069827;28;20040;-53
2022/07/14 00:24:11;;;;;;;14.00;3.20;;;;;;;22.99;100.00;101941.84;5069920;28;20492;-51
2022/07/14 00:26:40;;;;;;;15.77;2.53;;;;;;;23.10;100.00;101952.91;5067389;28;20092;-52
2022/07/14 00:29:07;;;;;;;22.80;4.20;;;;;;;22.81;100.00;101948.44;5069781;28;20154;-50
2022/07/14 00:31:33;;;;;;;15.33;3.10;;;;;;;22.67;100.00;101950.69;5067427;28;20036;-48
2022/07/14 00:34:00;;;;;;;18.20;2.40;;;;;;;22.77;100.00;101956.28;5066765;28;20029;-50
2022/07/14 00:36:28;;;;;;;14.97;3.00;;;;;;;22.97;100.00;101965.03;5070592;28;20033;-49
2022/07/14 00:38:55;;;;;;;12.50;3.20;;;;;;;22.84;100.00;101963.50;5069316;28;20035;-53
2022/07/14 00:41:20;;;;;;;15.15;2.72;;;;;;;22.87;100.00;101962.97;5072120;28;20013;-52
2022/07/14 00:43:48;;;;;;;11.40;2.85;;;;;;;22.86;100.00;101969.50;5068488;28;20032;-53
2022/07/14 00:46:13;;;;;;;13.93;2.70;;;;;;;22.70;100.00;101972.00;5072390;28;20097;-54
2022/07/14 00:48:39;;;;;;;11.50;2.67;;;;;;;22.90;100.00;101971.47;5069641;28;20097;-50
2022/07/14 00:51:05;;;;;;;18.95;4.35;;;;;;;23.12;100.00;101964.41;5070292;28;20040;-56
2022/07/14 00:53:30;;;;;;;14.80;3.22;;;;;;;22.95;100.00;101965.25;5068860;28;20033;-52
2022/07/14 00:55:57;;;;;;;11.90;2.75;;;;;;;22.96;100.00;101953.28;5068437;28;20049;-49
2022/07/14 00:58:23;;;;;;;10.27;2.60;;;;;;;22.68;100.00;101957.81;5069229;28;20040;-54
2022/07/14 01:00:49;;;;;;;14.03;2.73;;;;;;;23.15;100.00;101956.50;5067186;28;20044;-52
2022/07/14 01:03:15;;;;;;;16.60;3.08;;;;;;;23.23;100.00;101968.09;5071006;28;20029;-52
2022/07/14 01:05:41;;;;;;;12.35;3.03;;;;;;;22.74;100.00;101973.16;5069325;28;20056;-51
2022/07/14 01:08:06;;;;;;;11.82;2.75;;;;;;;22.65;100.00;101968.38;5069024;28;20052;-54
2022/07/14 01:10:31;;;;;;;16.48;2.72;;;;;;;23.22;100.00;101964.50;5069066;28;20037;-54
2022/07/14 01:13:00;;;;;;;14.80;2.50;;;;;;;22.76;100.00;101959.28;5072336;28;20069;-47
2022/07/14 01:15:26;;;;;;;11.90;3.40;;;;;;;22.92;100.00;101960.31;5069263;28;20045;-54
2022/07/14 01:17:52;;;;;;;;;;;;;;;22.65;100.00;101968.38;5072521;28;20051;-55
2022/07/14 01:20:18;;;;;;;15.50;3.03;;;;;;;22.96;100.00;101964.19;5070881;28;19916;-52
2022/07/14 01:22:49;;;;;;;11.70;3.27;;;;;;;22.61;100.00;101968.06;5067563;28;20372;-51
2022/07/14 01:25:19;;;;;;;17.30;2.50;;;;;;;22.48;100.00;101969.19;5065002;28;20128;-56
2022/07/14 01:27:46;;;;;;;14.30;2.60;;;;;;;22.35;100.00;101967.63;5071111;28;20123;-53
2022/07/14 01:30:12;;;;;;;12.23;2.72;;;;;;;22.58;100.00;101977.56;5077855;28;20088;-54
2022/07/14 01:32:38;;;;;;;14.60;3.17;;;;;;;22.17;100.00;101983.16;5070529;28;20057;-56
2022/07/14 01:35:05;;;;;;;17.63;3.17;;;;;;;22.07;100.00;101985.69;5069891;28;20029;-53
2022/07/14 01:37:31;;;;;;;12.10;2.90;;;;;;;22.14;100.00;101985.53;5072951;28;20032;-54
2022/07/14 01:39:57;;;;;;;10.55;2.40;;;;;;;22.43;100.00;101972.66;5070745;28;20029;-53
2022/07/14 01:42:24;;;;;;;17.93;3.03;;;;;;;22.37;100.00;101965.47;5073652;28;20045;-51
2022/07/14 01:44:50;;;;;;;13.93;2.85;;;;;;;21.96;100.00;101971.06;5075997;28;20707;-53
2022/07/14 01:47:15;;;;;;;15.67;3.03;;;;;;;21.69;100.00;101968.13;5072382;28;20036;-50
2022/07/14 01:49:41;;;;;;;12.27;3.20;;;;;;;21.53;100.00;101975.09;5074557;28;20081;-54
2022/07/14 01:52:08;;;;;;;22.33;3.70;;;;;;;21.58;100.00;101962.44;5070980;28;20266;-54
2022/07/14 01:54:36;;;;;;;9.17;2.77;;;;;;;21.47;100.00;101966.03;5073152;28;20072;-53
2022/07/14 01:57:02;;;;;;;27.10;4.72;;;;;;;21.44;100.00;101969.22;5073231;28;20025;-53
2022/07/14 01:59:29;;;;;;;21.87;3.70;;;;;;;21.51;100.00;101967.19;5067340;28;20055;-51
2022/07/14 02:01:56;;;;;;;14.10;3.50;;;;;;;21.78;100.00;101972.91;5069089;28;20354;-54
2022/07/14 02:04:23;;;;;;;21.17;2.80;;;;;;;21.17;100.00;101975.19;5071174;28;20033;-55
2022/07/14 02:06:51;;;;;;;15.57;3.67;;;;;;;21.23;100.00;101970.69;5070372;28;20041;-56
2022/07/14 02:12:26;;;;;;;14.17;3.63;;;;;;;21.09;100.00;101973.66;5076295;28;20312;-53
2022/07/14 02:14:51;;;;;;;18.87;3.20;;;;;;;21.12;100.00;101970.50;5075222;28;20261;-53
2022/07/14 02:17:17;;;;;;;35.55;3.55;;;;;;;21.35;100.00;101980.50;5073084;28;20067;-53
2022/07/14 02:19:42;;;;;;;15.47;4.20;;;;;;;21.35;100.00;101977.75;5071249;28;20039;-54
2022/07/14 02:22:08;;;;;;;11.88;3.65;;;;;;;21.76;100.00;101974.22;5076824;28;20028;-53
2022/07/14 02:24:35;;;;;;;18.90;3.72;;;;;;;21.66;100.00;101974.03;5086760;28;20037;-53
2022/07/14 02:27:01;;;;;;;14.18;3.92;;;;;;;21.72;100.00;101970.34;5068264;28;20096;-48
2022/07/14 02:29:26;;;;;;;12.52;3.22;;;;;;;21.53;100.00;101970.50;5072246;28;20044;-53
2022/07/14 02:31:52;;;;;;;14.88;4.25;;;;;;;21.59;100.00;101969.53;5070768;28;20060;-51
2022/07/14 02:34:18;;;;;;;14.48;3.53;;;;;;;21.65;100.00;101962.31;5074519;28;20092;-55
2022/07/14 02:36:44;;;;;;;17.90;4.53;;;;;;;21.74;100.00;101973.66;5070387;28;20037;-53
2022/07/14 02:39:12;;;;;;;14.63;3.70;;;;;;;21.74;100.00;101966.28;5071832;28;20029;-53
2022/07/14 02:41:38;;;;;;;10.87;2.80;;;;;;;21.56;100.00;101970.00;5075580;28;20281;-53
2022/07/14 02:44:04;;;;;;;;;;;;;;;21.65;100.00;101956.03;5073702;28;20333;-52
2022/07/14 02:46:30;;;;;;;23.57;4.27;;;;;;;21.39;100.00;101959.06;5074130;28;19916;-52
2022/07/14 02:48:56;;;;;;;;;;;;;;;21.36;100.00;101962.28;5069183;28;20036;-49
2022/07/14 02:51:21;;;;;;;17.00;3.70;;;;;;;21.25;100.00;101969.41;5067862;28;19913;-53
2022/07/14 02:53:50;;;;;;;;;;;;;;;21.22;100.00;101956.28;5069755;28;20128;-51
2022/07/14 02:56:16;;;;;;;15.73;3.67;;;;;;;21.33;100.00;101960.00;5074020;28;19924;-53
2022/07/14 02:58:42;;;;;;;12.27;3.35;;;;;;;21.21;100.00;101957.31;5071211;28;20617;-54
2022/07/14 03:01:09;;;;;;;16.02;3.72;;;;;;;21.06;100.00;101947.78;5070097;28;20037;-54
2022/07/14 03:03:36;;;;;;;23.13;4.00;;;;;;;21.01;100.00;101944.13;5072691;28;20093;-48
2022/07/14 03:06:07;;;;;;;19.40;4.67;;;;;;;20.64;100.00;101934.34;5070038;28;20285;-56
2022/07/14 03:08:33;;;;;;;16.30;4.17;;;;;;;20.89;100.00;101930.56;5071531;28;20369;-55
2022/07/14 03:10:59;;;;;;;15.67;4.47;;;;;;;20.60;100.00;101938.59;5073216;28;20276;-54
2022/07/14 03:13:25;;;;;;;19.57;3.83;;;;;;;20.48;100.00;101944.84;5073434;28;20274;-52
2022/07/14 03:15:51;;;;;;;16.27;3.53;;;;;;;20.41;100.00;101941.41;5073788;28;20125;-53
2022/07/14 03:18:16;;;;;;;29.58;5.15;;;;;;;20.37;100.00;101947.53;5066881;28;20043;-55
2022/07/14 03:20:42;;;;;;;23.65;4.70;;;;;;;20.45;100.00;101950.75;5066499;28;20045;-56
2022/07/14 03:23:07;;;;;;;16.83;4.55;;;;;;;20.35;100.00;101945.06;5068747;28;21011;-55
2022/07/14 03:25:33;;;;;;;20.80;4.85;;;;;;;20.29;100.00;101946.84;5072281;28;20052;-54
2022/07/14 03:27:59;;;;;;;15.07;4.05;;;;;;;20.17;100.00;101946.81;5071441;28;20087;-54
2022/07/14 03:30:31;;;;;;;20.17;4.27;;;;;;;20.20;100.00;101942.81;5070504;28;20044;-55
2022/07/14 03:32:57;;;;;;;12.20;4.55;;;;;;;20.28;100.00;101945.19;5069244;28;20278;-55
2022/07/14 03:35:22;;;;;;;16.58;4.15;;;;;;;20.18;100.00;101929.47;5071141;28;20070;-55
2022/07/14 03:37:48;;;;;;;15.98;4.68;;;;;;;20.22;100.00;101935.25;5072795;28;20031;-51
2022/07/14 03:40:14;;;;;;;13.07;5.22;;;;;;;20.25;100.00;101931.22;5073267;28;20032;-52
2022/07/14 03:42:39;;;;;;;20.93;5.87;;;;;;;20.13;100.00;101932.06;5068539;28;20052;-52
2022/07/14 03:45:07;;;;;;;17.27;5.60;;;;;;;20.13;100.00;101926.63;5068879;28;20346;-55
2022/07/14 03:47:32;;;;;;;22.90;4.97;;;;;;;20.26;100.00;101925.56;5067743;28;20055;-54
2022/07/14 03:49:59;;;;;;;22.55;5.38;;;;;;;20.20;100.00;101926.53;5050634;28;20265;-54
2022/07/14 03:52:24;;;;;;;13.55;4.78;;;;;;;20.29;100.00;101927.81;5067396;28;20041;-54
2022/07/14 03:54:50;;;;;;;28.52;5.70;;;;;;;20.22;100.00;101928.97;5069825;28;20033;-52
2022/07/14 03:57:19;;;;;;;17.27;5.13;;;;;;;20.12;100.00;101922.25;5070653;28;20040;-53
2022/07/14 03:59:45;;;;;;;14.47;4.73;;;;;;;20.11;100.00;101917.88;5073724;28;20266;-52
2022/07/14 04:02:14;;;;;;;16.17;4.90;;;;;;;20.17;100.00;101922.38;5073483;28;20281;-56
2022/07/14 04:04:40;;;;;;;23.73;6.55;;;;;;;20.14;100.00;101924.72;5073482;28;20297;-52
2022/07/14 04:07:07;;;;;;;14.00;4.93;;;;;;;20.26;100.00;101924.72;5073585;28;20056;-55
2022/07/14 04:09:32;;;;;;;22.77;5.27;;;;;;;20.13;100.00;101921.19;5073130;28;20270;-54
2022/07/14 04:11:59;;;;;;;29.83;5.93;;;;;;;20.06;100.00;101923.16;5070097;28;20328;-52
2022/07/14 04:14:25;;;;;;;;;;;;;;;20.13;100.00;101914.91;5070887;28;20388;-54
2022/07/14 04:16:51;;;;;;;18.73;6.40;;;;;;;20.10;100.00;101908.09;5070849;28;20019;-54
2022/07/14 04:19:18;;;;;;;18.17;5.80;;;;;;;20.15;100.00;101919.06;5070319;28;20155;-53
2022/07/14 04:21:44;;;;;;;24.88;6.07;;;;;;;20.03;100.00;101919.03;5073389;28;20296;-59
2022/07/14 04:24:11;;;;;;;15.60;5.03;;;;;;;19.95;100.00;101924.78;5073913;28;20047;-53
2022/07/14 04:26:37;;;;;;;31.33;6.90;;;;;;;19.90;100.00;101922.75;5073397;28;20823;-51
2022/07/14 04:29:04;;;;;;;20.57;5.33;;;;;;;19.90;100.00;101917.34;5076294;28;20025;-54
2022/07/14 04:31:30;;;;;;;24.90;5.23;;;;;;;20.02;100.00;101913.84;5073762;28;20277;-51
2022/07/14 04:33:56;;;;;;;38.97;10.73;;;;;;;19.86;100.00;101918.84;5073592;28;20303;-54
2022/07/14 04:36:22;;;;;;;25.05;11.05;;;;;;;20.21;100.00;101939.03;5075214;28;20037;-52
2022/07/14 04:38:49;;;;;;;27.13;6.30;;;;;;;20.03;100.00;101934.50;5075242;28;20048;-54
2022/07/14 04:41:16;;;;;;;23.37;9.03;;;;;;;20.11;100.00;101930.63;5069130;28;20342;-54
2022/07/14 04:43:41;;;;;;;23.75;10.55;;;;;;;20.15;100.00;101929.94;5070397;28;20281;-54
2022/07/14 04:46:09;;;;;;;34.78;10.25;;;;;;;20.19;100.00;101931.09;5069957;28;20056;-54
2022/07/14 04:54:31;;;;;;;38.93;13.23;;;;;;;20.38;100.00;101932.91;5039919;28;20286;-56
2022/07/14 04:57:12;;;;;;;29.07;8.40;;;;;;;20.31;100.00;101938.47;5074701;28;20265;-54
2022/07/14 04:59:44;;;;;;;28.03;11.10;;;;;;;20.33;100.00;101931.72;5074597;28;20293;-52
2022/07/14 05:02:12;;;;;;;19.20;8.30;;;;;;;20.47;100.00;101937.75;5077924;28;20266;-54
2022/07/14 05:04:38;;;;;;;31.90;8.05;;;;;;;20.52;100.00;101944.34;5078849;28;20270;-53
2022/07/14 05:07:05;;;;;;;20.27;6.27;;;;;;;20.49;100.00;101938.34;5060717;28;20043;-54
2022/07/14 05:09:35;;;;;;;30.73;6.73;;;;;;;20.52;100.00;101939.75;5065895;28;20290;-53
2022/07/14 05:12:03;;;;;;;22.57;7.17;;;;;;;20.55;100.00;101935.75;5069267;28;20271;-55
2022/07/14 05:14:30;;;;;;;18.30;5.87;;;;;;;20.42;100.00;101929.47;5071345;28;20274;-55
2022/07/14 05:16:56;;;;;;;24.08;9.55;;;;;;;20.54;100.00;101928.69;5071535;28;20281;-53
2022/07/14 05:19:23;;;;;;;31.77;11.53;;;;;;;20.68;100.00;101932.78;5070538;28;20033;-55
2022/07/14 05:21:49;;;;;;;31.58;11.38;;;;;;;20.77;100.00;101944.97;5071997;28;20269;-50
2022/07/14 05:24:15;;;;;;;;;;;;;;;20.87;100.00;101949.81;5076558;28;20035;-56
2022/07/14 05:26:41;;;;;;;15.97;5.40;;;;;;;20.88;100.00;101953.38;5074122;28;19913;-56
2022/07/14 05:29:06;;;;;;;35.17;8.45;;;;;;;20.92;100.00;101959.97;5073452;28;20043;-53
2022/07/14 05:31:32;;;;;;;20.17;6.70;;;;;;;20.85;100.00;101937.53;5071219;28;20067;-54
2022/07/14 05:33:58;;;;;;;21.35;8.18;;;;;;;20.91;100.00;101942.84;5074711;28;20037;-54
2022/07/14 05:36:24;;;;;;;14.43;5.45;;;;;;;20.85;100.00;101935.63;5069715;28;20048;-50
2022/07/14 05:38:50;;;;;;;15.82;3.60;;;;;;;20.80;100.00;101942.88;5069144;28;20026;-54
2022/07/14 05:41:17;;;;;;;19.35;4.57;;;;;;;20.73;100.00;101954.63;5067085;28;20025;-52
2022/07/14 05:43:42;;;;;;;16.80;4.23;;;;;;;20.92;100.00;101965.41;5067390;28;20045;-55
2022/07/14 05:46:09;;;;;;;;;;;;;;;20.93;100.00;101967.06;5070378;28;20270;-56
2022/07/14 05:48:37;;;;;;;13.90;4.10;;;;;;;21.03;100.00;101953.72;5073341;28;19939;-54
2022/07/14 05:51:23;;;;;;;21.75;4.70;;;;;;;21.09;100.00;101960.06;5070883;28;20351;-56
2022/07/14 05:53:52;;;;;;;18.80;4.13;;;;;;;21.14;100.00;101959.38;5073085;28;20101;-53
2022/07/14 05:56:21;;;;;;;16.30;4.20;;;;;;;21.26;100.00;101951.19;5051160;28;20040;-53
2022/07/14 05:58:47;;;;;;;14.00;3.83;;;;;;;21.32;100.00;101942.88;5073143;28;20262;-53
2022/07/14 06:01:14;;;;;;;13.40;4.28;;;;;;;21.37;100.00;101942.16;5070986;28;20102;-56
2022/07/14 06:03:39;;;;;;;27.20;4.07;;;;;;;21.32;100.00;101942.03;5074772;28;20104;-56
2022/07/14 06:06:08;;;;;;;17.97;4.80;;;;;;;21.42;100.00;101938.69;5068995;28;20089;-53
2022/07/14 06:08:35;;;;;;;15.63;4.27;;;;;;;21.43;100.00;101940.34;5066941;28;20092;-56
2022/07/14 06:11:03;;;;;;;20.17;3.60;;;;;;;21.46;100.00;101946.16;5068372;28;20036;-51
2022/07/14 06:13:29;;;;;;;14.77;3.73;;;;;;;21.47;100.00;101944.28;5068673;28;20056;-57
2022/07/14 06:15:57;;;;;;;18.40;4.07;;;;;;;21.47;100.00;101942.34;5068630;28;20025;-54
2022/07/14 06:18:24;;;;;;;23.27;3.90;;;;;;;21.52;100.00;101941.63;5071798;28;20116;-55
2022/07/14 06:20:50;;;;;;;12.67;3.20;;;;;;;21.46;100.00;101943.44;5069561;28;20025;-55
2022/07/14 06:23:16;;;;;;;23.05;4.78;;;;;;;21.46;100.00;101942.63;5071251;28;20041;-56
2022/07/14 06:25:43;;;;;;;20.53;3.80;;;;;;;21.59;100.00;101946.94;5070658;28;20028;-56
2022/07/14 06:28:09;;;;;;;17.67;5.07;;;;;;;21.53;100.00;101940.56;5071812;28;20116;-52
2022/07/14 06:30:35;;;;;;;37.03;14.82;;;;;;;21.61;100.00;101942.88;5075030;28;20029;-54
2022/07/14 06:33:01;;;;;;;16.10;6.38;;;;;;;21.66;100.00;101941.34;5072969;28;20037;-56
2022/07/14 06:35:27;;;;;;;22.00;5.43;;;;;;;20.90;100.00;101943.94;5072634;28;20087;-53
2022/07/14 06:37:55;;;;;;;15.83;4.57;;;;;;;20.96;100.00;101944.84;5066319;28;20080;-54
2022/07/14 06:40:21;;;;;;;52.60;21.80;;;;;;;20.85;100.00;101946.50;5067823;28;20037;-55
2022/07/14 06:42:47;;;;;;;17.05;5.68;;;;;;;20.89;100.00;101955.03;5068910;28;20146;-53
2022/07/14 06:45:24;;;;;;;12.00;3.07;;;;;;;20.95;100.00;101959.50;5065952;28;20045;-54
2022/07/14 06:47:53;;;;;;;12.83;3.17;;;;;;;20.98;100.00;101956.31;5064161;28;20036;-54
2022/07/14 06:50:19;;;;;;;11.73;4.10;;;;;;;21.14;100.00;101956.63;5069692;28;20056;-55
2022/07/14 06:52:45;;;;;;;10.43;2.75;;;;;;;21.35;100.00;101957.91;5071268;28;20033;-58
2022/07/14 06:55:11;;;;;;;14.15;3.83;;;;;;;21.43;100.00;101949.34;5072738;28;20510;-60
2022/07/14 06:57:36;;;;;;;459.45;284.05;;;;;;;21.49;100.00;101950.28;5072981;28;20057;-59
2022/07/14 07:00:07;;;;;;;44.28;14.40;;;;;;;21.78;100.00;101956.56;5073432;28;20055;-57
2022/07/14 07:02:34;;;;;;;32.40;9.43;;;;;;;21.91;100.00;101958.19;5076827;28;20045;-58
2022/07/14 07:07:43;;;;;;;80.57;36.90;;;;;;;22.23;100.00;101964.16;5072443;28;20651;-58
2022/07/14 07:10:11;;;;;;;246.27;105.50;;;;;;;22.28;100.00;101953.34;5073501;28;20025;-58
2022/07/14 07:12:37;;;;;;;27.07;7.87;;;;;;;22.31;100.00;101952.84;5066245;28;20029;-59
2022/07/14 07:15:04;;;;;;;14.97;3.30;;;;;;;22.41;100.00;101961.19;5075778;28;20052;-59
2022/07/14 07:17:29;;;;;;;14.03;4.37;;;;;;;22.33;100.00;101958.84;5068143;28;20052;-60
2022/07/14 07:19:55;;;;;;;251.85;121.00;;;;;;;22.37;100.00;101957.28;5069610;28;20029;-59
2022/07/14 07:22:21;;;;;;;23.00;7.32;;;;;;;22.37;100.00;101954.56;5069281;28;20037;-60
2022/07/14 07:24:46;;;;;;;29.27;8.53;;;;;;;22.43;100.00;101950.03;5070381;28;20064;-59
2022/07/14 07:27:12;;;;;;;65.30;24.73;;;;;;;22.53;100.00;101944.78;5068997;28;20320;-58
2022/07/14 07:29:37;;;;;;;64.32;22.63;;;;;;;22.68;100.00;101944.16;5071726;28;20080;-59
2022/07/14 07:32:03;;;;;;;35.28;12.57;;;;;;;22.87;100.00;101944.69;5073948;28;20032;-59
2022/07/14 07:34:28;;;;;;;17.38;6.85;;;;;;;22.90;100.00;101948.84;5072716;28;20114;-58
2022/07/14 07:36:54;;;;;;;10.68;3.97;;;;;;;22.80;100.00;101948.69;5071058;28;20093;-58
2022/07/14 07:39:19;;;;;;;19.35;6.22;;;;;;;22.80;100.00;101943.22;5075910;28;20059;-58
2022/07/14 07:41:45;;;;;;;15.13;4.75;;;;;;;22.81;100.00;101936.69;5071396;28;20099;-59
2022/07/14 07:44:10;;;;;;;15.77;5.07;;;;;;;22.77;100.00;101934.47;5068412;28;20079;-59
2022/07/14 07:46:36;;;;;;;14.27;5.30;;;;;;;23.10;100.00;101936.56;5070458;28;20032;-57
2022/07/14 07:49:01;;;;;;;15.20;4.32;;;;;;;23.23;100.00;101940.78;5068911;28;20052;-59
2022/07/14 07:51:27;;;;;;;18.85;5.78;;;;;;;23.25;100.00;101939.47;5068006;28;20039;-57
2022/07/14 07:53:52;;;;;;;13.45;4.10;;;;;;;23.23;100.00;101935.34;5065624;28;20033;-57
2022/07/14 07:56:18;;;;;;;19.33;4.95;;;;;;;23.40;100.00;101930.63;5073947;28;20067;-58
2022/07/14 07:58:43;;;;;;;12.30;3.53;;;;;;;23.42;100.00;101928.50;5071241;28;20051;-60
2022/07/14 08:01:09;;;;;;;11.02;3.80;;;;;;;23.18;100.00;101925.19;5072059;28;20121;-59
2022/07/14 08:03:35;;;;;;;13.20;3.67;;;;;;;23.30;100.00;101923.19;5072932;28;20029;-58
2022/07/14 08:06:01;;;;;;;8.63;3.10;;;;;;;23.40;100.00;101927.09;5068755;28;20031;-60
2022/07/14 08:08:26;;;;;;;14.45;3.63;;;;;;;23.49;100.00;101918.19;5071547;28;20501;-57
2022/07/14 08:10:51;;;;;;;9.25;3.50;;;;;;;23.69;100.00;101914.03;5070038;28;20187;-58
2022/07/14 08:13:17;;;;;;;11.20;3.42;;;;;;;23.78;100.00;101914.38;5067876;28;20504;-59
2022/07/14 08:15:43;;;;;;;7.40;2.80;;;;;;;23.91;100.00;101907.66;5070259;28;20030;-59
2022/07/14 08:18:09;;;;;;;16.80;3.83;;;;;;;23.89;100.00;101910.66;5072030;28;20029;-59
2022/07/14 08:20:35;;;;;;;16.63;3.60;;;;;;;23.86;100.00;101904.88;5067545;28;20072;-58
2022/07/14 08:23:01;;;;;;;11.68;3.42;;;;;;;24.06;100.00;101904.28;5072734;28;20045;-58
2022/07/14 08:25:27;;;;;;;11.57;3.63;;;;;;;23.92;100.00;101901.13;5073354;28;20072;-60
2022/07/14 08:27:53;;;;;;;10.57;2.53;;;;;;;24.05;100.00;101897.16;5078389;28;20104;-57
2022/07/14 08:30:19;;;;;;;10.18;3.50;;;;;;;24.08;100.00;101885.69;5075153;28;20088;-58
2022/07/14 08:32:52;;;;;;;;;;;;;;;23.98;100.00;101896.50;5074030;28;20037;-58
2022/07/14 08:35:21;;;;;;;12.00;3.30;;;;;;;23.97;100.00;101890.22;5070914;28;19923;-57
2022/07/14 08:37:47;;;;;;;9.20;2.90;;;;;;;24.06;100.00;101885.16;5072682;28;20037;-58
2022/07/14 08:40:16;;;;;;;6.63;2.60;;;;;;;24.20;100.00;101880.06;5075550;28;20043;-57
2022/07/14 08:42:44;;;;;;;9.07;2.73;;;;;;;24.48;100.00;101888.97;5078866;28;20041;-57
2022/07/14 08:45:13;;;;;;;11.53;3.07;;;;;;;24.57;100.00;101881.09;5073587;28;20025;-58
2022/07/14 08:47:39;;;;;;;14.37;3.03;;;;;;;24.67;100.00;101880.31;5074592;28;20079;-58
2022/07/14 08:50:07;;;;;;;11.13;2.93;;;;;;;24.81;100.00;101883.41;5076257;28;20047;-58
2022/07/14 08:52:33;;;;;;;6.60;2.53;;;;;;;24.85;100.00;101876.31;5078627;28;20089;-58
2022/07/14 08:54:59;;;;;;;8.15;2.50;;;;;;;24.97;100.00;101868.72;5081190;28;20054;-58
2022/07/14 08:57:26;;;;;;;7.50;2.60;;;;;;;25.09;100.00;101871.22;5077898;28;20057;-59
2022/07/14 08:59:52;;;;;;;7.07;2.13;;;;;;;25.03;100.00;101872.31;5068748;28;20047;-58
2022/07/14 09:02:18;;;;;;;17.15;2.65;;;;;;;25.17;100.00;101873.44;5070052;28;20037;-56
2022/07/14 09:04:45;;;;;;;;;;;;;;;25.18;100.00;101882.47;5071393;28;20029;-59
2022/07/14 09:07:10;;;;;;;18.48;2.13;;;;;;;25.30;100.00;101876.75;5072932;28;19928;-58
2022/07/14 09:09:37;;;;;;;7.40;2.15;;;;;;;25.13;100.00;101876.97;5075502;28;20081;-58
2022/07/14 09:12:07;;;;;;;13.53;2.93;;;;;;;25.11;100.00;101876.41;5073389;28;20037;-59
2022/07/14 09:17:56;;;;;;;8.53;2.37;;;;;;;25.19;100.00;101889.59;5073712;28;20100;-57
2022/07/14 09:20:24;;;;;;;5.93;1.90;;;;;;;25.31;100.00;101895.63;5079976;28;20033;-57
2022/07/14 09:22:58;;;;;;;7.03;1.97;;;;;;;25.52;100.00;101884.75;5074776;28;20055;-57
2022/07/14 09:25:25;;;;;;;8.13;2.17;;;;;;;25.66;100.00;101881.50;5070893;28;20033;-58
2022/07/14 09:27:52;;;;;;;8.43;2.13;;;;;;;25.32;100.00;101880.84;5072949;28;20057;-58
2022/07/14 09:30:18;;;;;;;13.53;1.70;;;;;;;25.19;100.00;101882.19;5075026;28;20041;-58
2022/07/14 09:32:52;;;;;;;8.73;1.75;;;;;;;25.60;100.00;101884.22;5070981;28;20041;-58
2022/07/14 09:35:27;;;;;;;4.87;1.50;;;;;;;25.87;100.00;101891.34;5077377;28;20123;-58
2022/07/14 09:37:54;;;;;;;6.97;1.87;;;;;;;26.12;100.00;101894.34;5073540;28;20029;-57
2022/07/14 09:40:26;;;;;;;13.73;1.83;;;;;;;26.31;100.00;101894.66;5077489;28;20083;-58
2022/07/14 09:42:57;;;;;;;8.50;2.47;;;;;;;26.62;100.00;101903.59;5074906;28;20056;-58
2022/07/14 09:45:24;;;;;;;12.23;2.90;;;;;;;27.36;100.00;101907.69;5082438;28;20127;-58
2022/07/14 09:47:56;;;;;;;9.57;2.87;;;;;;;27.65;97.74;101917.13;5081616;28;20041;-58
2022/07/14 09:50:56;;;;;;;10.50;2.20;;;;;;;28.15;91.00;101915.13;5072052;28;20095;-59
2022/07/14 09:53:25;;;;;;;8.25;1.95;;;;;;;28.75;84.89;101913.13;5071119;28;20041;-58
2022/07/14 09:56:03;;;;;;;7.43;2.33;;;;;;;29.66;81.49;101924.31;5073793;28;20120;-58
2022/07/14 09:58:35;;;;;;;9.45;1.98;;;;;;;29.78;79.45;101921.91;5074731;28;20095;-58
2022/07/14 10:01:06;;;;;;;6.70;1.70;;;;;;;29.97;78.85;101918.28;5077837;28;20029;-59
2022/07/14 10:03:34;;;;;;;8.52;1.60;;;;;;;30.52;75.40;101916.78;5075011;28;20036;-58
2022/07/14 10:06:01;;;;;;;5.53;1.98;;;;;;;31.11;67.48;101916.94;5074733;28;20027;-57
2022/07/14 10:08:29;;;;;;;6.38;2.00;;;;;;;31.11;71.06;101916.94;5072921;28;20040;-57
2022/07/14 10:10:58;;;;;;;7.63;1.85;;;;;;;31.32;68.39;101913.75;5074677;28;20029;-58
2022/07/14 10:13:24;;;;;;;9.15;2.10;;;;;;;31.61;66.40;101926.34;5079620;28;20031;-58
2022/07/14 10:15:52;;;;;;;5.93;2.05;;;;;;;32.37;60.73;101916.44;5076060;28;20033;-57
2022/07/14 10:18:21;;;;;;;6.93;2.03;;;;;;;32.25;58.28;101924.47;5075865;28;20032;-59
2022/07/14 10:20:51;;;;;;;7.15;1.70;;;;;;;32.66;57.43;101920.59;5074470;28;20066;-58
2022/07/14 10:23:18;;;;;;;8.88;1.77;;;;;;;33.02;56.53;101925.13;5071617;28;20037;-58
2022/07/14 10:25:46;;;;;;;6.47;1.75;;;;;;;33.12;55.96;101925.94;5078878;28;20037;-61
2022/07/14 10:28:14;;;;;;;4.07;1.35;;;;;;;33.64;52.84;101924.31;5074069;28;20029;-58
2022/07/14 10:30:58;;;;;;;3.47;1.20;;;;;;;33.75;53.99;101920.06;5075618;28;20032;-57
2022/07/14 10:33:34;;;;;;;7.35;1.50;;;;;;;33.87;52.55;101924.94;5076087;28;20040;-57
2022/07/14 10:36:24;;;;;;;8.63;1.70;;;;;;;32.38;54.07;101911.69;5075132;28;20075;-59
2022/07/14 10:39:03;;;;;;;3.75;1.40;;;;;;;33.69;53.59;101915.84;5077274;28;20048;-56
2022/07/14 10:42:05;;;;;;;16.13;1.70;;;;;;;34.52;49.99;101921.31;5075551;28;20071;-58
2022/07/14 10:44:34;;;;;;;8.30;1.38;;;;;;;34.61;51.28;101930.44;5064841;28;20048;-58
2022/07/14 10:47:55;;;;;;;7.88;1.58;;;;;;;34.53;49.48;101922.94;5069253;28;20040;-58
2022/07/14 10:50:22;;;;;;;4.68;1.40;;;;;;;35.26;49.68;101930.16;5064461;28;20045;-58
2022/07/14 10:52:54;;;;;;;6.30;1.40;;;;;;;35.30;42.50;101922.81;5070591;28;20041;-58
2022/07/14 10:55:29;;;;;;;6.32;1.70;;;;;;;35.85;45.46;101920.00;5073580;28;20037;-58
2022/07/14 10:58:01;;;;;;;3.30;1.38;;;;;;;36.20;43.19;101904.06;5075926;28;20029;-58
2022/07/14 11:00:43;;;;;;;6.10;1.25;;;;;;;35.59;42.86;101909.97;5070325;28;20041;-57
2022/07/14 11:03:27;;;;;;;4.38;1.52;;;;;;;34.60;43.43;101901.00;5072437;28;20048;-56
2022/07/14 11:06:07;;;;;;;6.28;1.98;;;;;;;33.37;47.81;101895.78;5072329;28;20025;-54
2022/07/14 11:08:41;;;;;;;7.55;1.80;;;;;;;33.00;52.98;101891.38;5074084;28;20033;-55
2022/07/14 11:11:19;;;;;;;5.88;1.60;;;;;;;34.29;48.33;101904.91;5071614;28;20052;-57
2022/07/14 11:14:05;;;;;;;7.97;1.83;;;;;;;34.77;47.19;101905.66;5075224;28;20032;-59
2022/07/14 11:16:47;;;;;;;6.03;1.38;;;;;;;34.27;47.10;101907.19;5077854;28;20040;-55
2022/07/14 11:19:33;;;;;;;11.70;1.92;;;;;;;33.38;49.84;101902.94;5078590;28;20087;-56
2022/07/14 11:22:28;;;;;;;12.18;1.80;;;;;;;33.29;53.84;101900.16;5071274;28;20029;-57
2022/07/14 11:25:03;;;;;;;6.55;1.75;;;;;;;33.64;49.92;101899.34;5063706;28;20043;-55
2022/07/14 11:27:38;;;;;;;3.17;1.38;;;;;;;33.65;52.41;101890.72;5068541;28;20055;-59
2022/07/14 11:30:28;;;;;;;4.50;1.27;;;;;;;33.72;46.27;101896.56;5070590;28;20051;-55
2022/07/14 11:33:06;;;;;;;8.32;1.58;;;;;;;33.77;47.43;101892.81;5070540;28;20029;-56
2022/07/14 11:38:39;;;;;;;6.13;1.27;;;;;;;32.81;49.90;101888.84;5076482;28;20052;-53